Time;durP1;ratioP1;P1;durP2;ratioP2;P2;SDS_P1;SDS_P2;PMS_P1;PMS_P2;Temp;Humidity;BMP_temperature;BMP_pressure;BME280_temperature;BME280_humidity;BME280_pressure;Samples;Min_cycle;Max_cycle;Signal;HPM_P1;HPM_P2
2022/05/07 00:00:02;;;;;;;31.4;35.1;;;;;;;-133;95.5;65200;;;;
2022/05/07 00:11:02;;;;;;;31.4;35.1;;;;;;;-133;96;65200;;;;
2022/05/07 00:22:02;;;;;;;31.4;35.1;;;;;;;-133;96.8;65200;;;;
2022/05/07 00:32:02;;;;;;;34.7;39.1;;;;;;;-133;95.8;65200;;;;
2022/05/07 00:43:02;;;;;;;34.7;39.1;;;;;;;-133;96.5;65200;;;;
2022/05/07 00:53:02;;;;;;;34.7;39.1;;;;;;;-133;97.7;65200;;;;
2022/05/07 01:03:02;;;;;;;36.1;40.8;;;;;;;-133;98;65200;;;;
2022/05/07 01:14:02;;;;;;;36.1;40.8;;;;;;;-133;98.4;65190;;;;
2022/05/07 01:24:02;;;;;;;36.1;40.8;;;;;;;-133;98.5;65190;;;;
2022/05/07 01:34:02;;;;;;;36;41.6;;;;;;;-133;98.2;65190;;;;
2022/05/07 01:44:02;;;;;;;36;41.6;;;;;;;-133;98.5;65200;;;;
2022/05/07 01:55:02;;;;;;;36;41.6;;;;;;;-133;100;65190;;;;
2022/05/07 02:05:02;;;;;;;32.9;38.4;;;;;;;-133;99.3;65200;;;;
2022/05/07 02:15:02;;;;;;;32.9;38.4;;;;;;;-133;99.6;65190;;;;
2022/05/07 02:26:02;;;;;;;32.9;38.4;;;;;;;-133;99.1;65200;;;;
2022/05/07 02:37:02;;;;;;;35.4;40.3;;;;;;;-133;99;65190;;;;
2022/05/07 02:48:02;;;;;;;35.4;40.3;;;;;;;-133;98.6;65190;;;;
2022/05/07 02:58:02;;;;;;;35.4;40.3;;;;;;;-133;98.4;65200;;;;
2022/05/07 03:09:02;;;;;;;36.6;41;;;;;;;-133;99.1;65190;;;;
2022/05/07 03:19:02;;;;;;;36.6;41;;;;;;;-133;99.2;65190;;;;
2022/05/07 03:30:02;;;;;;;35.1;41.2;;;;;;;-133;99.7;65190;;;;
2022/05/07 03:41:03;;;;;;;35.1;41.2;;;;;;;-133;99.9;65190;;;;
2022/05/07 04:03:02;;;;;;;34.2;40.7;;;;;;;-133;99.9;65190;;;;
2022/05/07 04:14:02;;;;;;;34.2;40.7;;;;;;;-133;100;65190;;;;
2022/05/07 04:25:02;;;;;;;34.2;40.7;;;;;;;-133;99.6;65190;;;;
2022/05/07 04:35:02;;;;;;;31.6;35;;;;;;;-133;98.7;65190;;;;
2022/05/07 04:46:02;;;;;;;31.6;35;;;;;;;-133;97.9;65190;;;;
2022/05/07 04:56:02;;;;;;;31.6;35;;;;;;;-133;97.1;65190;;;;
2022/05/07 05:07:02;;;;;;;31.9;35.7;;;;;;;-133;96.4;65190;;;;
2022/05/07 05:18:02;;;;;;;31.9;35.7;;;;;;;-133;96.4;65190;;;;
2022/05/07 05:29:02;;;;;;;31.1;36.2;;;;;;;-133;95.7;65190;;;;
2022/05/07 05:39:05;;;;;;;31.1;36.2;;;;;;;-133;94.1;65200;;;;
2022/05/07 05:49:02;;;;;;;31.1;36.2;;;;;;;-133;91.9;65190;;;;
2022/05/07 06:00:02;;;;;;;33.5;37.2;;;;;;;-133;89.3;65200;;;;
2022/05/07 06:11:02;;;;;;;33.5;37.2;;;;;;;-133;87.1;65190;;;;
2022/05/07 06:22:02;;;;;;;33.5;37.2;;;;;;;-133;83.3;65190;;;;
2022/05/07 06:32:02;;;;;;;28.3;32.2;;;;;;;-133;82;65190;;;;
2022/05/07 06:43:02;;;;;;;28.3;32.2;;;;;;;-133;77.2;65200;;;;
2022/05/07 06:53:02;;;;;;;28.3;32.2;;;;;;;-133;77.6;65190;;;;
2022/05/07 07:04:02;;;;;;;24.5;28.4;;;;;;;-133;77.2;65200;;;;
2022/05/07 07:15:02;;;;;;;24.5;28.4;;;;;;;-133;74.6;65200;;;;
2022/05/07 07:26:02;;;;;;;24.5;28.4;;;;;;;-133;76.4;65200;;;;
2022/05/07 07:36:02;;;;;;;21.1;25.4;;;;;;;-133;74.5;65200;;;;
2022/05/07 07:57:02;;;;;;;21.1;25.4;;;;;;;-133;74;65200;;;;
2022/05/07 08:18:02;;;;;;;20.4;24;;;;;;;-133;67.7;65200;;;;
2022/05/07 08:29:02;;;;;;;15.1;19.3;;;;;;;-133;59.2;65200;;;;
2022/05/07 08:39:02;;;;;;;15.1;19.3;;;;;;;-133;59;65200;;;;
2022/05/07 08:50:02;;;;;;;15.1;19.3;;;;;;;-133;58.6;65200;;;;
2022/05/07 09:01:02;;;;;;;8.3;12.2;;;;;;;-133;56.8;65200;;;;
2022/05/07 09:11:02;;;;;;;8.3;12.2;;;;;;;-133;54.8;65200;;;;
2022/05/07 09:21:19;;;;;;;8.3;12.2;;;;;;;-133;55.3;65200;;;;
2022/05/07 09:32:02;;;;;;;6.9;9.6;;;;;;;-133;51;65200;;;;
2022/05/07 09:42:02;;;;;;;6.9;9.6;;;;;;;-133;51.1;65190;;;;
2022/05/07 09:52:02;;;;;;;6.9;9.6;;;;;;;-133;45.1;65200;;;;
2022/05/07 10:03:02;;;;;;;5.4;11.6;;;;;;;-133;46.1;65200;;;;
2022/05/07 10:14:02;;;;;;;5.4;11.6;;;;;;;-133;45.9;65200;;;;
2022/05/07 10:24:02;;;;;;;5.4;11.6;;;;;;;-133;46.3;65200;;;;
2022/05/07 10:35:02;;;;;;;6.5;10.4;;;;;;;-133;47.7;65190;;;;
2022/05/07 10:46:02;;;;;;;6.5;10.4;;;;;;;-133;43.4;65200;;;;
2022/05/07 10:56:02;;;;;;;6.5;10.4;;;;;;;-133;44.1;65200;;;;
2022/05/07 11:06:02;;;;;;;5.9;10.6;;;;;;;-133;42.1;65200;;;;
2022/05/07 11:16:02;;;;;;;5.9;10.6;;;;;;;-133;42.2;65200;;;;
2022/05/07 11:26:02;;;;;;;5.9;10.6;;;;;;;-133;44.6;65200;;;;
2022/05/07 11:37:02;;;;;;;6.1;13.4;;;;;;;-133;44.4;65200;;;;
2022/05/07 11:48:03;;;;;;;6.1;13.4;;;;;;;-133;44.2;65190;;;;
2022/05/07 11:59:02;;;;;;;5.7;9.4;;;;;;;-133;42.8;65200;;;;
2022/05/07 12:10:02;;;;;;;5.7;9.4;;;;;;;-133;44.7;65200;;;;
2022/05/07 12:20:02;;;;;;;5.7;9.4;;;;;;;-133;46.1;65200;;;;
2022/05/07 12:31:02;;;;;;;5.2;11;;;;;;;-133;45.4;65200;;;;
2022/05/07 12:41:02;;;;;;;5.2;11;;;;;;;-133;45.3;65200;;;;
2022/05/07 12:51:02;;;;;;;5.2;11;;;;;;;-133;47.6;65200;;;;
2022/05/07 13:01:02;;;;;;;5;8.8;;;;;;;-133;46.3;65200;;;;
2022/05/07 13:11:02;;;;;;;5;8.8;;;;;;;-133;45.6;65200;;;;
2022/05/07 13:21:02;;;;;;;5;8.8;;;;;;;-133;46.7;65200;;;;
2022/05/07 13:31:02;;;;;;;6.6;9.8;;;;;;;-133;46.5;65200;;;;
2022/05/07 13:42:02;;;;;;;6.6;9.8;;;;;;;-133;45.7;65210;;;;
2022/05/07 13:52:02;;;;;;;6.6;9.8;;;;;;;-133;50.4;65200;;;;
2022/05/07 14:02:02;;;;;;;6.5;10.3;;;;;;;-133;47.9;65210;;;;
2022/05/07 14:12:02;;;;;;;6.5;10.3;;;;;;;-133;54.2;65200;;;;
2022/05/07 14:23:02;;;;;;;6.5;10.3;;;;;;;-133;53.6;65210;;;;
2022/05/07 14:33:05;;;;;;;6.4;12;;;;;;;-133;55.1;65210;;;;
2022/05/07 14:44:02;;;;;;;6.4;12;;;;;;;-133;52.6;65210;;;;
2022/05/07 14:55:02;;;;;;;6.4;12;;;;;;;-133;54.3;65210;;;;
2022/05/07 15:05:02;;;;;;;7.3;10.3;;;;;;;-133;55.1;65210;;;;
2022/05/07 15:16:02;;;;;;;7.3;10.3;;;;;;;-133;56.7;65210;;;;
2022/05/07 15:26:02;;;;;;;7.3;10.3;;;;;;;-133;51.3;65210;;;;
2022/05/07 15:37:07;;;;;;;7.2;10.2;;;;;;;-133;53.5;65210;;;;
2022/05/07 15:47:02;;;;;;;7.2;10.2;;;;;;;-133;55.4;65210;;;;
2022/05/07 15:57:05;;;;;;;7.2;10.2;;;;;;;-133;51.3;65210;;;;
2022/05/07 16:08:02;;;;;;;7.5;12.1;;;;;;;-133;51;65220;;;;
2022/05/07 16:18:02;;;;;;;7.5;12.1;;;;;;;-133;51.1;65220;;;;
2022/05/07 16:28:02;;;;;;;7.5;12.1;;;;;;;-133;51.5;65220;;;;
2022/05/07 16:39:02;;;;;;;7.9;14;;;;;;;-133;53.6;65220;;;;
2022/05/07 16:49:02;;;;;;;7.9;14;;;;;;;-133;54.5;65220;;;;
2022/05/07 17:00:02;;;;;;;7.8;10;;;;;;;-133;54.7;65220;;;;
2022/05/07 17:10:03;;;;;;;7.8;10;;;;;;;-133;56.5;65220;;;;
2022/05/07 17:21:02;;;;;;;7.8;10;;;;;;;-133;59.9;65220;;;;
2022/05/07 17:32:02;;;;;;;8.9;15.2;;;;;;;-133;63.3;65230;;;;
2022/05/07 17:42:02;;;;;;;8.9;15.2;;;;;;;-133;67.9;65230;;;;
2022/05/07 17:53:04;;;;;;;8.9;15.2;;;;;;;-133;66.1;65230;;;;
2022/05/07 18:04:02;;;;;;;19.5;24.9;;;;;;;-133;67.1;65220;;;;
2022/05/07 18:14:02;;;;;;;19.5;24.9;;;;;;;-133;70.1;65220;;;;
2022/05/07 18:25:02;;;;;;;19.5;24.9;;;;;;;-133;72.3;65220;;;;
2022/05/07 18:35:02;;;;;;;19.1;24.4;;;;;;;-133;74.4;65230;;;;
2022/05/07 18:46:02;;;;;;;19.1;24.4;;;;;;;-133;75.1;65220;;;;
2022/05/07 19:07:02;;;;;;;20.8;25.2;;;;;;;-133;77.3;65220;;;;
2022/05/07 19:18:02;;;;;;;20.8;25.2;;;;;;;-133;79.5;65220;;;;
2022/05/07 19:28:03;;;;;;;20.8;25.2;;;;;;;-133;80.1;65220;;;;
2022/05/07 19:38:02;;;;;;;27.2;34.2;;;;;;;-133;80.7;65230;;;;
2022/05/07 19:49:03;;;;;;;27.2;34.2;;;;;;;-133;83.5;65230;;;;
2022/05/07 20:00:03;;;;;;;19.5;25.6;;;;;;;-133;83.2;65220;;;;
2022/05/07 20:10:05;;;;;;;19.5;25.6;;;;;;;-133;82.7;65220;;;;
2022/05/07 20:22:06;;;;;;;19.5;25.6;;;;;;;-133;84;65220;;;;
2022/05/07 20:32:02;;;;;;;21.4;27.9;;;;;;;-133;84.7;65220;;;;
2022/05/07 20:42:02;;;;;;;21.4;27.9;;;;;;;-133;84.9;65230;;;;
2022/05/07 20:53:03;;;;;;;21.4;27.9;;;;;;;-133;84.8;65220;;;;
2022/05/07 21:03:02;;;;;;;21.6;27.6;;;;;;;-133;85.7;65220;;;;
2022/05/07 21:13:03;;;;;;;21.6;27.6;;;;;;;-133;86.5;65220;;;;
2022/05/07 21:24:02;;;;;;;21.6;27.6;;;;;;;-133;86.7;65220;;;;
2022/05/07 21:34:02;;;;;;;28;32.6;;;;;;;-133;87.8;65220;;;;
2022/05/07 21:44:04;;;;;;;28;32.6;;;;;;;-133;88.7;65220;;;;
2022/05/07 21:55:02;;;;;;;28;32.6;;;;;;;-133;87.8;65220;;;;
2022/05/07 22:06:02;;;;;;;24;27.8;;;;;;;-133;89.4;65220;;;;
2022/05/07 22:17:02;;;;;;;24;27.8;;;;;;;-133;89.9;65220;;;;
2022/05/07 22:28:02;;;;;;;24;27.8;;;;;;;-133;88.4;65220;;;;
2022/05/07 22:38:02;;;;;;;20.3;24.5;;;;;;;-133;89.7;65220;;;;
2022/05/07 22:49:02;;;;;;;20.3;24.5;;;;;;;-133;89.8;65220;;;;
2022/05/07 22:59:02;;;;;;;23.1;30.1;;;;;;;-133;89.2;65210;;;;
2022/05/07 23:09:02;;;;;;;23.1;30.1;;;;;;;-133;88.1;65220;;;;
2022/05/07 23:19:02;;;;;;;23.1;30.1;;;;;;;-133;88.2;65220;;;;
2022/05/07 23:30:02;;;;;;;21.5;26.5;;;;;;;-133;89.2;65220;;;;
2022/05/07 23:40:02;;;;;;;21.5;26.5;;;;;;;-133;88.5;65210;;;;
2022/05/07 23:50:02;;;;;;;21.5;26.5;;;;;;;-133;89.5;65220;;;;
